Terminal Aerodrome Forecast
Issued by NWS

Home | Current Version | Previous Version | Text Only | Print | Product List | Glossary On
Versions: 1 2 3 4 5 6 7 8 9 10 11 12 13 14 15 16 17 18 19 20 21 22 23 24 25 26
000
FTUS46 KEKA 202351
TAFCEC
TAF
KCEC 202351Z 2100/2124 18008KT P6SM BKN200
     FM210400 16010KT P6SM SCT060 BKN120 OVC200
     FM210900 16015G25KT P6SM OVC050
     FM211400 16025G40KT 5SM -RA OVC035
     FM211800 17020G35KT 5SM -RA OVC030 WS020/18055KT=

USA.gov is the U.S. government's official web portal to all federal, state and local government web resources and services.